createdAt,value
2018-11-14T00:02:13.221Z,9.17
2018-11-14T00:07:16.591Z,9.03
2018-11-14T00:12:19.977Z,8.98
2018-11-14T00:17:23.827Z,8.98
2018-11-14T00:22:27.170Z,8.77
2018-11-14T00:27:30.536Z,8.95
2018-11-14T00:32:33.893Z,9.10
2018-11-14T00:37:37.277Z,9.25
2018-11-14T00:42:41.410Z,9.13
2018-11-14T00:47:45.863Z,9.13
2018-11-14T00:52:49.212Z,9.15
2018-11-14T00:57:53.324Z,9.33
2018-11-14T01:02:56.690Z,9.07
2018-11-14T01:08:00.614Z,8.82
2018-11-14T01:13:04.042Z,8.98
2018-11-14T01:18:07.431Z,8.98
2018-11-14T01:23:10.771Z,9.04
2018-11-14T01:28:14.226Z,9.01
2018-11-14T01:33:18.286Z,8.96
2018-11-14T01:38:21.684Z,9.09
2018-11-14T01:43:25.146Z,9.00
2018-11-14T01:48:28.499Z,8.71
2018-11-14T01:53:31.880Z,8.86
2018-11-14T01:58:35.328Z,8.94
2018-11-14T02:03:38.683Z,8.90
2018-11-14T02:08:42.056Z,9.13
2018-11-14T02:13:45.422Z,9.01
2018-11-14T02:18:48.811Z,8.98
2018-11-14T02:23:52.227Z,8.96
2018-11-14T02:28:56.432Z,8.94
2018-11-14T02:33:59.799Z,8.98
2018-11-14T02:39:03.208Z,8.84
2018-11-14T02:44:06.639Z,8.83
2018-11-14T02:49:10.014Z,9.02
2018-11-14T02:54:13.374Z,9.09
2018-11-14T02:59:16.782Z,9.27
2018-11-14T03:04:20.192Z,9.21
2018-11-14T03:09:24.129Z,9.31
2018-11-14T03:14:28.367Z,9.32
2018-11-14T03:19:31.729Z,9.32
2018-11-14T03:24:35.098Z,9.04
2018-11-14T03:29:38.492Z,9.11
2018-11-14T03:34:41.869Z,9.11
2018-11-14T03:39:45.263Z,8.90
2018-11-14T03:44:48.654Z,9.16
2018-11-14T03:49:52.066Z,9.10
2018-11-14T03:54:55.439Z,9.28
2018-11-14T03:59:58.841Z,9.22
2018-11-14T04:05:02.206Z,9.32
2018-11-14T04:10:07.417Z,9.30
2018-11-14T04:15:12.134Z,9.39
2018-11-14T04:20:16.746Z,9.29
2018-11-14T04:25:20.898Z,9.30
2018-11-14T04:30:24.507Z,9.20
2018-11-14T04:35:27.897Z,9.21
2018-11-14T04:40:31.528Z,9.21
2018-11-14T04:45:35.564Z,9.19
2018-11-14T04:50:38.948Z,9.26
2018-11-14T04:55:42.287Z,9.32
2018-11-14T05:00:45.715Z,9.10
2018-11-14T05:05:49.146Z,9.26
2018-11-14T05:10:52.543Z,9.38
2018-11-14T05:15:56.011Z,9.37
2018-11-14T05:20:59.349Z,9.37
2018-11-14T05:26:02.708Z,9.45
2018-11-14T05:31:06.133Z,9.39
2018-11-14T05:36:09.497Z,9.26
2018-11-14T05:41:13.086Z,9.44
2018-11-14T05:46:16.479Z,9.31
2018-11-14T05:51:19.869Z,9.43
2018-11-14T05:56:23.310Z,9.25
2018-11-14T06:01:26.698Z,9.22
2018-11-14T06:06:30.106Z,9.39
2018-11-14T06:11:34.005Z,9.37
2018-11-14T06:16:37.404Z,9.42
2018-11-14T06:21:41.768Z,9.16
2018-11-14T06:26:45.166Z,9.29
2018-11-14T06:31:48.746Z,9.47
2018-11-14T06:36:52.386Z,9.61
2018-11-14T06:41:55.780Z,9.42
2018-11-14T06:46:59.187Z,9.47
2018-11-14T06:52:03.319Z,9.52
2018-11-14T06:57:07.689Z,9.40
2018-11-14T07:02:11.056Z,9.44
2018-11-14T07:07:14.494Z,9.45
2018-11-14T07:12:17.875Z,9.52
2018-11-14T07:17:21.289Z,9.72
2018-11-14T07:22:24.762Z,9.60
2018-11-14T07:27:28.123Z,9.62
2018-11-14T07:32:32.976Z,9.84
2018-11-14T07:37:36.495Z,9.89
2018-11-14T07:42:40.283Z,9.55
2018-11-14T07:47:43.634Z,9.78
2018-11-14T07:52:47.009Z,9.82
2018-11-14T07:57:50.371Z,9.97
2018-11-14T08:02:53.739Z,9.98
2018-11-14T08:07:57.241Z,10.17
2018-11-14T08:13:00.507Z,9.99
2018-11-14T08:18:04.808Z,10.26
2018-11-14T08:23:08.247Z,10.16
2018-11-14T08:28:11.650Z,10.07
2018-11-14T08:33:15.199Z,10.07
2018-11-14T08:38:18.559Z,10.19
2018-11-14T08:43:22.020Z,9.91
2018-11-14T08:48:25.486Z,10.15
2018-11-14T08:53:28.873Z,10.25
2018-11-14T08:58:32.206Z,10.37
2018-11-14T09:03:36.235Z,10.39
2018-11-14T09:08:39.646Z,10.50
2018-11-14T09:13:43.122Z,10.48
2018-11-14T09:18:46.829Z,10.65
2018-11-14T09:23:50.204Z,10.58
2018-11-14T09:28:53.557Z,10.69
2018-11-14T09:33:57.036Z,10.71
2018-11-14T09:39:01.086Z,10.69
2018-11-14T09:44:04.828Z,10.76
2018-11-14T09:49:08.216Z,10.90
2018-11-14T09:54:11.615Z,10.92
2018-11-14T09:59:15.105Z,11.14
2018-11-14T10:04:18.478Z,11.15
2018-11-14T10:09:21.871Z,11.21
2018-11-14T10:14:25.270Z,11.45
2018-11-14T10:19:28.657Z,11.43
2018-11-14T10:24:32.018Z,11.39
2018-11-14T10:29:35.462Z,11.49
2018-11-14T10:34:38.838Z,11.48
2018-11-14T10:39:42.269Z,11.62
2018-11-14T10:44:46.381Z,11.56
2018-11-14T10:49:49.821Z,11.37
2018-11-14T10:54:53.246Z,11.61
2018-11-14T10:59:56.637Z,11.55
2018-11-14T11:05:05.322Z,11.54
2018-11-14T11:11:12.708Z,11.38
2018-11-14T11:16:21.438Z,11.55
2018-11-14T11:21:24.838Z,11.57
2018-11-14T11:26:28.204Z,11.65
2018-11-14T11:31:31.619Z,11.62
2018-11-14T11:36:35.103Z,11.65
2018-11-14T11:41:38.619Z,11.66
2018-11-14T11:46:43.020Z,11.65
2018-11-14T11:51:46.477Z,11.65
2018-11-14T11:56:49.898Z,11.60
2018-11-14T12:01:53.334Z,11.63
2018-11-14T12:06:56.844Z,11.73
2018-11-14T12:12:00.165Z,11.82
2018-11-14T12:17:04.254Z,11.75
2018-11-14T12:22:07.656Z,11.90
2018-11-14T12:27:11.054Z,11.80
2018-11-14T12:32:14.460Z,11.87
2018-11-14T12:37:17.846Z,11.81
2018-11-14T12:42:21.195Z,11.78
2018-11-14T12:47:25.295Z,11.81
2018-11-14T12:52:28.709Z,11.76
2018-11-14T12:57:32.970Z,11.72
2018-11-14T13:02:36.583Z,11.72
2018-11-14T13:07:40.210Z,11.61
2018-11-14T13:12:44.341Z,11.84
2018-11-14T13:17:47.766Z,11.76
2018-11-14T13:22:52.083Z,11.71
2018-11-14T13:27:55.669Z,11.71
2018-11-14T13:32:59.149Z,11.75
2018-11-14T13:38:02.584Z,11.74
2018-11-14T13:43:06.054Z,11.71
2018-11-14T13:48:09.402Z,11.71
2018-11-14T13:53:12.766Z,11.53
2018-11-14T13:58:16.182Z,11.49
2018-11-14T14:03:19.548Z,11.49
2018-11-14T14:08:22.888Z,11.60
2018-11-14T14:13:26.274Z,11.48
2018-11-14T14:18:29.643Z,11.48
2018-11-14T14:23:33.116Z,11.35
2018-11-14T14:28:36.514Z,11.35
2018-11-14T14:33:39.874Z,11.30
2018-11-14T14:38:43.237Z,11.26
2018-11-14T14:43:46.703Z,11.20
2018-11-14T14:48:50.271Z,11.24
2018-11-14T14:53:53.639Z,11.16
2018-11-14T14:58:57.040Z,11.13
2018-11-14T15:04:00.454Z,10.92
2018-11-14T15:09:04.094Z,10.96
2018-11-14T15:14:07.911Z,10.87
2018-11-14T15:19:11.319Z,10.72
2018-11-14T15:24:14.671Z,10.76
2018-11-14T15:29:18.771Z,10.68
2018-11-14T15:34:22.216Z,10.69
2018-11-14T15:39:25.592Z,10.66
2018-11-14T15:44:28.970Z,10.54
2018-11-14T15:49:32.357Z,10.33
2018-11-14T15:54:35.729Z,10.26
2018-11-14T15:59:39.249Z,10.44
2018-11-14T16:04:42.642Z,10.23
2018-11-14T16:09:46.057Z,10.23
2018-11-14T16:14:49.382Z,9.82
2018-11-14T16:19:53.064Z,9.61
2018-11-14T16:24:56.516Z,9.72
2018-11-14T16:29:59.880Z,9.73
2018-11-14T16:35:03.283Z,9.66
2018-11-14T16:40:09.194Z,9.56
2018-11-14T16:45:13.539Z,9.08
2018-11-14T16:50:18.013Z,9.22
2018-11-14T16:55:23.126Z,9.48
2018-11-14T17:00:27.816Z,9.26
2018-11-14T17:05:32.270Z,9.17
2018-11-14T17:10:35.667Z,8.77
2018-11-14T17:15:39.031Z,8.69
2018-11-14T17:20:42.420Z,8.50
2018-11-14T17:25:45.806Z,8.64
2018-11-14T17:30:49.242Z,8.54
2018-11-14T17:35:52.714Z,8.54
2018-11-14T17:40:56.157Z,8.27
2018-11-14T17:45:59.556Z,8.38
2018-11-14T17:51:02.923Z,8.23
2018-11-14T17:56:06.378Z,8.25
2018-11-14T18:01:09.847Z,8.03
2018-11-14T18:06:13.266Z,8.03
2018-11-14T18:11:16.769Z,7.95
2018-11-14T18:16:20.175Z,7.91
2018-11-14T18:21:23.518Z,8.02
2018-11-14T18:26:26.909Z,7.98
2018-11-14T18:31:30.303Z,7.85
2018-11-14T18:36:33.789Z,7.93
2018-11-14T18:41:37.170Z,7.78
2018-11-14T18:46:40.592Z,7.82
2018-11-14T18:51:44.570Z,7.78
2018-11-14T18:56:47.970Z,7.74
2018-11-14T19:01:51.469Z,7.65
2018-11-14T19:06:55.038Z,7.64
2018-11-14T19:11:58.375Z,7.66
2018-11-14T19:17:01.778Z,7.68
2018-11-14T19:22:05.403Z,7.47
2018-11-14T19:27:08.827Z,7.41
2018-11-14T19:32:12.260Z,7.42
2018-11-14T19:37:15.615Z,7.37
2018-11-14T19:42:19.606Z,7.19
2018-11-14T19:47:23.059Z,7.17
2018-11-14T19:52:26.425Z,7.26
2018-11-14T19:57:29.815Z,7.08
2018-11-14T20:02:33.466Z,7.15
2018-11-14T20:07:37.422Z,7.12
2018-11-14T20:12:40.963Z,6.75
2018-11-14T20:17:45.306Z,6.49
2018-11-14T20:22:48.734Z,6.58
2018-11-14T20:27:52.101Z,6.74
2018-11-14T20:32:56.735Z,6.82
2018-11-14T20:38:00.111Z,6.83
2018-11-14T20:43:03.691Z,6.82
2018-11-14T20:48:07.078Z,6.74
2018-11-14T20:53:10.543Z,6.70
2018-11-14T20:58:13.896Z,6.82
2018-11-14T21:03:17.529Z,6.89
2018-11-14T21:08:20.870Z,6.74
2018-11-14T21:13:24.403Z,6.71
2018-11-14T21:18:27.772Z,6.81
2018-11-14T21:23:31.186Z,6.31
2018-11-14T21:28:34.543Z,6.34
2018-11-14T21:33:38.941Z,6.22
2018-11-14T21:38:42.295Z,6.48
2018-11-14T21:43:45.649Z,6.59
2018-11-14T21:48:48.997Z,6.69
2018-11-14T21:53:52.487Z,6.51
2018-11-14T21:58:55.893Z,6.47
2018-11-14T22:03:59.284Z,6.52
2018-11-14T22:09:02.678Z,6.37
2018-11-14T22:14:06.034Z,6.41
2018-11-14T22:19:09.480Z,6.26
2018-11-14T22:24:12.859Z,6.43
2018-11-14T22:29:16.269Z,6.31
2018-11-14T22:34:19.614Z,6.06
2018-11-14T22:39:22.975Z,6.29
2018-11-14T22:44:26.354Z,6.17
2018-11-14T22:49:29.717Z,6.20
2018-11-14T22:54:33.186Z,6.29
2018-11-14T22:59:36.556Z,6.05
2018-11-14T23:04:39.904Z,6.26
2018-11-14T23:09:43.289Z,6.05
2018-11-14T23:14:46.659Z,6.08
2018-11-14T23:19:50.023Z,6.24
2018-11-14T23:24:54.207Z,6.02
2018-11-14T23:29:57.562Z,5.95
2018-11-14T23:35:06.269Z,5.87
2018-11-14T23:40:10.120Z,5.69
2018-11-14T23:45:14.696Z,5.83
2018-11-14T23:50:33.497Z,5.72
2018-11-14T23:55:36.862Z,5.72
